sensor_id;sensor_type;location;lat;lon;timestamp;temperature;humidity
65652;SHT30;52350;51.546;7.002;2022-10-16T00:00:30;14.23;90.27
65652;SHT30;52350;51.546;7.002;2022-10-16T00:02:55;14.05;90.74
65652;SHT30;52350;51.546;7.002;2022-10-16T00:05:21;13.85;90.91
65652;SHT30;52350;51.546;7.002;2022-10-16T00:07:46;13.63;91.34
65652;SHT30;52350;51.546;7.002;2022-10-16T00:10:11;13.47;91.94
65652;SHT30;52350;51.546;7.002;2022-10-16T00:12:37;13.31;92.41
65652;SHT30;52350;51.546;7.002;2022-10-16T00:15:02;13.20;92.80
65652;SHT30;52350;51.546;7.002;2022-10-16T00:17:28;13.07;93.01
65652;SHT30;52350;51.546;7.002;2022-10-16T00:19:54;12.99;93.26
65652;SHT30;52350;51.546;7.002;2022-10-16T00:22:19;12.92;93.49
65652;SHT30;52350;51.546;7.002;2022-10-16T00:24:45;12.83;93.46
65652;SHT30;52350;51.546;7.002;2022-10-16T00:27:10;12.76;93.53
65652;SHT30;52350;51.546;7.002;2022-10-16T00:29:36;12.69;93.59
65652;SHT30;52350;51.546;7.002;2022-10-16T00:32:01;12.62;93.83
65652;SHT30;52350;51.546;7.002;2022-10-16T00:34:27;12.62;93.95
65652;SHT30;52350;51.546;7.002;2022-10-16T00:36:52;12.54;93.87
65652;SHT30;52350;51.546;7.002;2022-10-16T00:39:17;12.72;94.15
65652;SHT30;52350;51.546;7.002;2022-10-16T00:41:43;12.88;94.05
65652;SHT30;52350;51.546;7.002;2022-10-16T00:47:17;12.89;93.98
65652;SHT30;52350;51.546;7.002;2022-10-16T00:49:46;12.89;93.84
65652;SHT30;52350;51.546;7.002;2022-10-16T00:52:14;13.00;93.68
65652;SHT30;52350;51.546;7.002;2022-10-16T00:54:40;13.33;93.45
65652;SHT30;52350;51.546;7.002;2022-10-16T00:57:06;13.30;93.25
65652;SHT30;52350;51.546;7.002;2022-10-16T00:59:34;13.30;93.14
65652;SHT30;52350;51.546;7.002;2022-10-16T01:02:02;13.28;93.05
65652;SHT30;52350;51.546;7.002;2022-10-16T01:04:35;13.61;92.39
65652;SHT30;52350;51.546;7.002;2022-10-16T01:07:12;13.57;92.25
65652;SHT30;52350;51.546;7.002;2022-10-16T01:09:51;13.55;92.33
65652;SHT30;52350;51.546;7.002;2022-10-16T01:12:48;13.58;92.14
65652;SHT30;52350;51.546;7.002;2022-10-16T01:15:23;13.62;92.39
65652;SHT30;52350;51.546;7.002;2022-10-16T01:20:34;13.79;91.63
65652;SHT30;52350;51.546;7.002;2022-10-16T01:23:10;13.95;90.75
65652;SHT30;52350;51.546;7.002;2022-10-16T01:28:41;14.17;89.79
65652;SHT30;52350;51.546;7.002;2022-10-16T01:31:16;14.21;89.40
65652;SHT30;52350;51.546;7.002;2022-10-16T01:33:50;14.14;89.53
65652;SHT30;52350;51.546;7.002;2022-10-16T01:36:22;14.00;90.16
65652;SHT30;52350;51.546;7.002;2022-10-16T01:38:51;13.95;90.53
65652;SHT30;52350;51.546;7.002;2022-10-16T01:41:24;14.05;90.02
65652;SHT30;52350;51.546;7.002;2022-10-16T01:43:56;14.06;89.82
65652;SHT30;52350;51.546;7.002;2022-10-16T01:46:27;14.06;89.71
65652;SHT30;52350;51.546;7.002;2022-10-16T01:48:56;13.90;89.76
65652;SHT30;52350;51.546;7.002;2022-10-16T01:51:24;14.10;89.23
65652;SHT30;52350;51.546;7.002;2022-10-16T01:53:53;14.07;89.42
65652;SHT30;52350;51.546;7.002;2022-10-16T01:56:22;14.24;88.66
65652;SHT30;52350;51.546;7.002;2022-10-16T02:01:28;14.20;88.85
65652;SHT30;52350;51.546;7.002;2022-10-16T02:03:58;14.20;88.55
65652;SHT30;52350;51.546;7.002;2022-10-16T02:06:28;14.17;88.68
65652;SHT30;52350;51.546;7.002;2022-10-16T02:08:54;14.18;88.58
65652;SHT30;52350;51.546;7.002;2022-10-16T02:11:20;14.23;88.41
65652;SHT30;52350;51.546;7.002;2022-10-16T02:13:46;14.21;88.28
65652;SHT30;52350;51.546;7.002;2022-10-16T02:16:17;14.24;88.21
65652;SHT30;52350;51.546;7.002;2022-10-16T02:18:43;14.33;87.70
65652;SHT30;52350;51.546;7.002;2022-10-16T02:24:01;14.38;87.25
65652;SHT30;52350;51.546;7.002;2022-10-16T02:29:13;14.33;87.51
65652;SHT30;52350;51.546;7.002;2022-10-16T02:31:44;14.27;87.85
65652;SHT30;52350;51.546;7.002;2022-10-16T02:34:14;14.27;87.67
65652;SHT30;52350;51.546;7.002;2022-10-16T02:36:41;14.35;87.12
65652;SHT30;52350;51.546;7.002;2022-10-16T02:39:09;14.24;87.51
65652;SHT30;52350;51.546;7.002;2022-10-16T02:41:35;14.49;86.49
65652;SHT30;52350;51.546;7.002;2022-10-16T02:44:01;14.46;86.53
65652;SHT30;52350;51.546;7.002;2022-10-16T02:46:27;14.52;86.17
65652;SHT30;52350;51.546;7.002;2022-10-16T02:48:52;14.42;86.63
65652;SHT30;52350;51.546;7.002;2022-10-16T02:51:17;14.54;86.24
65652;SHT30;52350;51.546;7.002;2022-10-16T02:53:43;14.48;86.51
65652;SHT30;52350;51.546;7.002;2022-10-16T02:56:08;14.57;86.04
65652;SHT30;52350;51.546;7.002;2022-10-16T02:58:34;14.42;86.33
65652;SHT30;52350;51.546;7.002;2022-10-16T03:00:59;14.33;86.93
65652;SHT30;52350;51.546;7.002;2022-10-16T03:03:25;14.27;87.30
65652;SHT30;52350;51.546;7.002;2022-10-16T03:05:50;14.44;86.73
65652;SHT30;52350;51.546;7.002;2022-10-16T03:08:16;14.40;86.62
65652;SHT30;52350;51.546;7.002;2022-10-16T03:10:41;14.58;85.81
65652;SHT30;52350;51.546;7.002;2022-10-16T03:13:07;14.67;85.51
65652;SHT30;52350;51.546;7.002;2022-10-16T03:15:32;14.64;85.50
65652;SHT30;52350;51.546;7.002;2022-10-16T03:17:58;14.67;85.47
65652;SHT30;52350;51.546;7.002;2022-10-16T03:20:24;14.65;85.28
65652;SHT30;52350;51.546;7.002;2022-10-16T03:22:49;14.65;85.34
65652;SHT30;52350;51.546;7.002;2022-10-16T03:25:15;14.58;85.46
65652;SHT30;52350;51.546;7.002;2022-10-16T03:27:40;14.69;84.87
65652;SHT30;52350;51.546;7.002;2022-10-16T03:30:06;14.58;85.25
65652;SHT30;52350;51.546;7.002;2022-10-16T03:32:32;14.46;85.82
65652;SHT30;52350;51.546;7.002;2022-10-16T03:34:57;14.62;85.20
65652;SHT30;52350;51.546;7.002;2022-10-16T03:37:23;14.58;84.94
65652;SHT30;52350;51.546;7.002;2022-10-16T03:39:48;14.59;85.02
65652;SHT30;52350;51.546;7.002;2022-10-16T03:42:14;14.64;84.59
65652;SHT30;52350;51.546;7.002;2022-10-16T03:44:39;14.58;84.82
65652;SHT30;52350;51.546;7.002;2022-10-16T03:47:05;14.59;84.65
65652;SHT30;52350;51.546;7.002;2022-10-16T03:49:30;14.61;84.51
65652;SHT30;52350;51.546;7.002;2022-10-16T03:51:55;14.55;84.61
65652;SHT30;52350;51.546;7.002;2022-10-16T03:54:21;14.45;85.04
65652;SHT30;52350;51.546;7.002;2022-10-16T03:56:47;14.52;84.58
65652;SHT30;52350;51.546;7.002;2022-10-16T03:59:13;14.59;84.03
65652;SHT30;52350;51.546;7.002;2022-10-16T04:01:38;14.46;84.80
65652;SHT30;52350;51.546;7.002;2022-10-16T04:04:04;14.55;84.36
65652;SHT30;52350;51.546;7.002;2022-10-16T04:06:29;14.51;84.77
65652;SHT30;52350;51.546;7.002;2022-10-16T04:08:55;14.45;84.78
65652;SHT30;52350;51.546;7.002;2022-10-16T04:11:21;14.45;84.95
65652;SHT30;52350;51.546;7.002;2022-10-16T04:13:46;14.54;84.15
65652;SHT30;52350;51.546;7.002;2022-10-16T04:16:12;14.40;85.04
65652;SHT30;52350;51.546;7.002;2022-10-16T04:18:37;14.44;84.81
65652;SHT30;52350;51.546;7.002;2022-10-16T04:21:03;14.49;84.74
65652;SHT30;52350;51.546;7.002;2022-10-16T04:23:30;14.40;84.97
65652;SHT30;52350;51.546;7.002;2022-10-16T04:25:55;14.44;84.78
65652;SHT30;52350;51.546;7.002;2022-10-16T04:28:21;14.48;84.55
65652;SHT30;52350;51.546;7.002;2022-10-16T04:30:46;14.45;84.72
65652;SHT30;52350;51.546;7.002;2022-10-16T04:33:12;14.49;84.59
65652;SHT30;52350;51.546;7.002;2022-10-16T04:35:38;14.44;84.76
65652;SHT30;52350;51.546;7.002;2022-10-16T04:38:03;14.37;84.90
65652;SHT30;52350;51.546;7.002;2022-10-16T04:40:29;14.34;85.05
65652;SHT30;52350;51.546;7.002;2022-10-16T04:42:58;14.35;85.41
65652;SHT30;52350;51.546;7.002;2022-10-16T04:45:24;14.40;85.06
65652;SHT30;52350;51.546;7.002;2022-10-16T04:47:50;14.35;84.84
65652;SHT30;52350;51.546;7.002;2022-10-16T04:50:15;14.27;85.35
65652;SHT30;52350;51.546;7.002;2022-10-16T04:52:41;14.30;85.23
65652;SHT30;52350;51.546;7.002;2022-10-16T04:55:06;14.28;85.30
65652;SHT30;52350;51.546;7.002;2022-10-16T04:57:32;14.27;85.26
65652;SHT30;52350;51.546;7.002;2022-10-16T04:59:58;14.31;85.15
65652;SHT30;52350;51.546;7.002;2022-10-16T05:02:24;14.16;85.75
65652;SHT30;52350;51.546;7.002;2022-10-16T05:04:50;14.07;86.02
65652;SHT30;52350;51.546;7.002;2022-10-16T05:07:16;14.21;85.48
65652;SHT30;52350;51.546;7.002;2022-10-16T05:09:41;14.25;85.41
65652;SHT30;52350;51.546;7.002;2022-10-16T05:12:07;14.23;85.49
65652;SHT30;52350;51.546;7.002;2022-10-16T05:14:32;14.37;84.99
65652;SHT30;52350;51.546;7.002;2022-10-16T05:16:58;14.35;84.78
65652;SHT30;52350;51.546;7.002;2022-10-16T05:19:24;14.28;85.08
65652;SHT30;52350;51.546;7.002;2022-10-16T05:21:50;14.37;84.84
65652;SHT30;52350;51.546;7.002;2022-10-16T05:24:15;14.27;85.28
65652;SHT30;52350;51.546;7.002;2022-10-16T05:26:41;14.34;85.01
65652;SHT30;52350;51.546;7.002;2022-10-16T05:29:06;14.23;85.44
65652;SHT30;52350;51.546;7.002;2022-10-16T05:31:32;14.16;85.74
65652;SHT30;52350;51.546;7.002;2022-10-16T05:33:58;14.25;85.45
65652;SHT30;52350;51.546;7.002;2022-10-16T05:36:25;14.38;84.82
65652;SHT30;52350;51.546;7.002;2022-10-16T05:38:50;14.38;84.86
65652;SHT30;52350;51.546;7.002;2022-10-16T05:41:16;14.42;84.77
65652;SHT30;52350;51.546;7.002;2022-10-16T05:43:46;14.31;85.30
65652;SHT30;52350;51.546;7.002;2022-10-16T05:46:12;14.20;85.83
65652;SHT30;52350;51.546;7.002;2022-10-16T05:48:37;14.23;85.77
65652;SHT30;52350;51.546;7.002;2022-10-16T05:51:04;14.24;85.52
65652;SHT30;52350;51.546;7.002;2022-10-16T05:53:34;14.16;85.81
65652;SHT30;52350;51.546;7.002;2022-10-16T05:56:01;14.06;86.24
65652;SHT30;52350;51.546;7.002;2022-10-16T05:58:28;14.16;86.00
65652;SHT30;52350;51.546;7.002;2022-10-16T06:01:03;14.06;86.47
65652;SHT30;52350;51.546;7.002;2022-10-16T06:03:30;14.30;85.54
65652;SHT30;52350;51.546;7.002;2022-10-16T06:05:56;14.33;85.19
65652;SHT30;52350;51.546;7.002;2022-10-16T06:08:22;14.28;85.53
65652;SHT30;52350;51.546;7.002;2022-10-16T06:10:48;14.16;85.85
65652;SHT30;52350;51.546;7.002;2022-10-16T06:13:14;14.17;86.05
65652;SHT30;52350;51.546;7.002;2022-10-16T06:15:41;14.10;86.17
65652;SHT30;52350;51.546;7.002;2022-10-16T06:18:20;14.17;85.94
65652;SHT30;52350;51.546;7.002;2022-10-16T06:20:45;14.06;86.53
65652;SHT30;52350;51.546;7.002;2022-10-16T06:23:11;14.05;86.60
65652;SHT30;52350;51.546;7.002;2022-10-16T06:25:36;14.10;86.26
65652;SHT30;52350;51.546;7.002;2022-10-16T06:28:01;14.24;85.89
65652;SHT30;52350;51.546;7.002;2022-10-16T06:30:27;14.23;85.87
65652;SHT30;52350;51.546;7.002;2022-10-16T06:32:52;14.30;85.75
65652;SHT30;52350;51.546;7.002;2022-10-16T06:35:18;14.21;86.25
65652;SHT30;52350;51.546;7.002;2022-10-16T06:37:43;14.27;85.89
65652;SHT30;52350;51.546;7.002;2022-10-16T06:40:08;14.31;85.63
65652;SHT30;52350;51.546;7.002;2022-10-16T06:42:34;14.38;85.53
65652;SHT30;52350;51.546;7.002;2022-10-16T06:45:00;14.33;85.68
65652;SHT30;52350;51.546;7.002;2022-10-16T06:47:26;14.35;85.89
65652;SHT30;52350;51.546;7.002;2022-10-16T06:49:52;14.38;85.78
65652;SHT30;52350;51.546;7.002;2022-10-16T06:52:17;14.44;85.42
65652;SHT30;52350;51.546;7.002;2022-10-16T06:54:43;14.42;85.48
65652;SHT30;52350;51.546;7.002;2022-10-16T06:57:08;14.38;85.61
65652;SHT30;52350;51.546;7.002;2022-10-16T06:59:34;14.44;85.42
65652;SHT30;52350;51.546;7.002;2022-10-16T07:01:59;14.30;86.06
65652;SHT30;52350;51.546;7.002;2022-10-16T07:04:25;14.31;86.33
65652;SHT30;52350;51.546;7.002;2022-10-16T07:06:50;14.37;85.72
65652;SHT30;52350;51.546;7.002;2022-10-16T07:09:16;14.24;86.41
65652;SHT30;52350;51.546;7.002;2022-10-16T07:11:42;14.31;86.32
65652;SHT30;52350;51.546;7.002;2022-10-16T07:14:17;14.25;86.54
65652;SHT30;52350;51.546;7.002;2022-10-16T07:16:44;14.33;86.32
65652;SHT30;52350;51.546;7.002;2022-10-16T07:19:10;14.41;86.22
65652;SHT30;52350;51.546;7.002;2022-10-16T07:21:38;14.31;86.42
65652;SHT30;52350;51.546;7.002;2022-10-16T07:24:04;14.25;86.86
65652;SHT30;52350;51.546;7.002;2022-10-16T07:26:33;14.24;87.02
65652;SHT30;52350;51.546;7.002;2022-10-16T07:29:00;14.38;86.70
65652;SHT30;52350;51.546;7.002;2022-10-16T07:31:26;14.46;86.21
65652;SHT30;52350;51.546;7.002;2022-10-16T07:33:52;14.48;86.29
65652;SHT30;52350;51.546;7.002;2022-10-16T07:36:18;14.65;85.81
65652;SHT30;52350;51.546;7.002;2022-10-16T07:38:45;14.64;85.78
65652;SHT30;52350;51.546;7.002;2022-10-16T07:41:12;14.65;85.92
65652;SHT30;52350;51.546;7.002;2022-10-16T07:43:51;14.92;85.22
65652;SHT30;52350;51.546;7.002;2022-10-16T07:46:18;14.86;85.35
65652;SHT30;52350;51.546;7.002;2022-10-16T07:49:06;14.92;85.04
65652;SHT30;52350;51.546;7.002;2022-10-16T07:54:08;15.02;85.09
65652;SHT30;52350;51.546;7.002;2022-10-16T07:56:34;15.16;84.73
65652;SHT30;52350;51.546;7.002;2022-10-16T07:59:00;15.14;84.61
65652;SHT30;52350;51.546;7.002;2022-10-16T08:01:25;15.19;84.48
65652;SHT30;52350;51.546;7.002;2022-10-16T08:03:51;15.41;83.31
65652;SHT30;52350;51.546;7.002;2022-10-16T08:06:18;15.42;83.57
65652;SHT30;52350;51.546;7.002;2022-10-16T08:08:47;15.55;82.60
65652;SHT30;52350;51.546;7.002;2022-10-16T08:11:13;15.63;82.15
65652;SHT30;52350;51.546;7.002;2022-10-16T08:13:40;15.68;82.22
65652;SHT30;52350;51.546;7.002;2022-10-16T08:16:06;15.78;81.69
65652;SHT30;52350;51.546;7.002;2022-10-16T08:18:36;15.73;81.69
65652;SHT30;52350;51.546;7.002;2022-10-16T08:21:02;15.78;81.21
65652;SHT30;52350;51.546;7.002;2022-10-16T08:23:29;15.81;81.25
65652;SHT30;52350;51.546;7.002;2022-10-16T08:25:55;15.86;80.84
65652;SHT30;52350;51.546;7.002;2022-10-16T08:28:21;15.86;80.80
65652;SHT30;52350;51.546;7.002;2022-10-16T08:30:48;15.86;81.77
65652;SHT30;52350;51.546;7.002;2022-10-16T08:33:13;15.94;81.09
65652;SHT30;52350;51.546;7.002;2022-10-16T08:35:38;16.11;79.65
65652;SHT30;52350;51.546;7.002;2022-10-16T08:38:04;16.09;80.63
65652;SHT30;52350;51.546;7.002;2022-10-16T08:40:31;16.16;80.69
65652;SHT30;52350;51.546;7.002;2022-10-16T08:45:52;16.42;79.18
65652;SHT30;52350;51.546;7.002;2022-10-16T08:51:09;16.58;79.44
65652;SHT30;52350;51.546;7.002;2022-10-16T08:53:43;16.79;77.60
65652;SHT30;52350;51.546;7.002;2022-10-16T08:56:23;16.82;77.55
65652;SHT30;52350;51.546;7.002;2022-10-16T08:58:50;16.99;76.96
65652;SHT30;52350;51.546;7.002;2022-10-16T09:01:17;17.14;76.69
65652;SHT30;52350;51.546;7.002;2022-10-16T09:06:56;17.38;76.26
65652;SHT30;52350;51.546;7.002;2022-10-16T09:12:18;17.75;75.52
65652;SHT30;52350;51.546;7.002;2022-10-16T09:20:49;18.33;72.41
65652;SHT30;52350;51.546;7.002;2022-10-16T09:23:15;18.38;70.91
65652;SHT30;52350;51.546;7.002;2022-10-16T09:25:48;18.33;72.12
65652;SHT30;52350;51.546;7.002;2022-10-16T09:28:15;18.33;72.21
65652;SHT30;52350;51.546;7.002;2022-10-16T09:30:42;18.34;71.77
65652;SHT30;52350;51.546;7.002;2022-10-16T09:33:09;18.58;72.12
65652;SHT30;52350;51.546;7.002;2022-10-16T09:35:39;18.61;70.99
65652;SHT30;52350;51.546;7.002;2022-10-16T09:38:07;18.69;72.48
65652;SHT30;52350;51.546;7.002;2022-10-16T09:40:37;18.87;70.40
65652;SHT30;52350;51.546;7.002;2022-10-16T09:43:17;19.04;68.48
65652;SHT30;52350;51.546;7.002;2022-10-16T09:45:54;19.18;69.74
65652;SHT30;52350;51.546;7.002;2022-10-16T09:48:21;19.06;68.99
65652;SHT30;52350;51.546;7.002;2022-10-16T09:51:00;19.06;70.11
65652;SHT30;52350;51.546;7.002;2022-10-16T09:53:41;19.14;70.42
65652;SHT30;52350;51.546;7.002;2022-10-16T09:56:09;19.28;67.72
65652;SHT30;52350;51.546;7.002;2022-10-16T09:58:41;19.25;67.75
65652;SHT30;52350;51.546;7.002;2022-10-16T10:01:10;19.06;68.43
65652;SHT30;52350;51.546;7.002;2022-10-16T10:03:41;18.97;67.97
65652;SHT30;52350;51.546;7.002;2022-10-16T10:08:58;18.56;69.26
65652;SHT30;52350;51.546;7.002;2022-10-16T10:11:40;18.66;68.46
65652;SHT30;52350;51.546;7.002;2022-10-16T10:14:21;18.55;68.58
65652;SHT30;52350;51.546;7.002;2022-10-16T10:16:50;18.30;69.83
65652;SHT30;52350;51.546;7.002;2022-10-16T10:19:22;18.30;70.65
65652;SHT30;52350;51.546;7.002;2022-10-16T10:21:49;18.79;68.46
65652;SHT30;52350;51.546;7.002;2022-10-16T10:24:17;19.24;68.96
65652;SHT30;52350;51.546;7.002;2022-10-16T10:27:06;19.72;65.53
65652;SHT30;52350;51.546;7.002;2022-10-16T10:37:41;20.23;64.87
65652;SHT30;52350;51.546;7.002;2022-10-16T10:43:13;21.14;62.79
65652;SHT30;52350;51.546;7.002;2022-10-16T10:45:52;21.31;62.04
65652;SHT30;52350;51.546;7.002;2022-10-16T10:50:55;21.65;59.08
65652;SHT30;52350;51.546;7.002;2022-10-16T11:01:56;20.00;61.88
65652;SHT30;52350;51.546;7.002;2022-10-16T11:07:39;20.49;63.41
65652;SHT30;52350;51.546;7.002;2022-10-16T11:10:13;20.89;59.86
65652;SHT30;52350;51.546;7.002;2022-10-16T11:12:47;21.38;60.96
65652;SHT30;52350;51.546;7.002;2022-10-16T11:15:21;21.59;57.74
65652;SHT30;52350;51.546;7.002;2022-10-16T11:18:01;21.99;57.20
65652;SHT30;52350;51.546;7.002;2022-10-16T11:20:34;22.76;57.47
65652;SHT30;52350;51.546;7.002;2022-10-16T11:25:59;24.03;52.35
65652;SHT30;52350;51.546;7.002;2022-10-16T11:28:29;25.37;48.71
65652;SHT30;52350;51.546;7.002;2022-10-16T11:33:55;27.30;43.77
65652;SHT30;52350;51.546;7.002;2022-10-16T11:37:03;27.59;42.63
65652;SHT30;52350;51.546;7.002;2022-10-16T11:39:36;29.38;40.70
65652;SHT30;52350;51.546;7.002;2022-10-16T11:47:26;28.02;40.52
65652;SHT30;52350;51.546;7.002;2022-10-16T11:50:05;28.21;40.34
65652;SHT30;52350;51.546;7.002;2022-10-16T11:52:41;27.45;42.69
65652;SHT30;52350;51.546;7.002;2022-10-16T11:55:18;28.82;40.69
65652;SHT30;52350;51.546;7.002;2022-10-16T11:57:59;30.60;36.46
65652;SHT30;52350;51.546;7.002;2022-10-16T12:00:35;31.10;34.94
65652;SHT30;52350;51.546;7.002;2022-10-16T12:03:15;28.71;39.06
65652;SHT30;52350;51.546;7.002;2022-10-16T12:08:27;27.72;42.91
65652;SHT30;52350;51.546;7.002;2022-10-16T12:10:53;28.83;39.50
65652;SHT30;52350;51.546;7.002;2022-10-16T12:13:30;29.64;38.34
65652;SHT30;52350;51.546;7.002;2022-10-16T12:18:42;31.68;35.38
65652;SHT30;52350;51.546;7.002;2022-10-16T12:21:12;31.48;33.77
65652;SHT30;52350;51.546;7.002;2022-10-16T12:23:51;30.23;35.73
65652;SHT30;52350;51.546;7.002;2022-10-16T12:26:27;27.90;39.97
65652;SHT30;52350;51.546;7.002;2022-10-16T12:29:12;28.76;38.53
65652;SHT30;52350;51.546;7.002;2022-10-16T12:31:52;29.12;38.59
65652;SHT30;52350;51.546;7.002;2022-10-16T12:34:50;29.86;37.10
65652;SHT30;52350;51.546;7.002;2022-10-16T12:39:37;28.58;39.51
65652;SHT30;52350;51.546;7.002;2022-10-16T12:42:04;26.19;42.73
65652;SHT30;52350;51.546;7.002;2022-10-16T12:44:44;24.59;46.02
65652;SHT30;52350;51.546;7.002;2022-10-16T12:47:19;24.82;46.83
65652;SHT30;52350;51.546;7.002;2022-10-16T12:49:50;26.00;44.39
65652;SHT30;52350;51.546;7.002;2022-10-16T12:52:50;26.73;43.52
65652;SHT30;52350;51.546;7.002;2022-10-16T12:55:15;26.69;41.65
65652;SHT30;52350;51.546;7.002;2022-10-16T13:11:23;29.04;38.10
65652;SHT30;52350;51.546;7.002;2022-10-16T13:16:48;29.82;35.85
65652;SHT30;52350;51.546;7.002;2022-10-16T13:30:30;30.61;36.08
65652;SHT30;52350;51.546;7.002;2022-10-16T13:35:47;30.31;36.69
65652;SHT30;52350;51.546;7.002;2022-10-16T13:38:16;29.61;37.15
65652;SHT30;52350;51.546;7.002;2022-10-16T13:40:54;27.97;40.87
65652;SHT30;52350;51.546;7.002;2022-10-16T13:43:21;25.57;45.28
65652;SHT30;52350;51.546;7.002;2022-10-16T13:45:53;25.07;46.28
65652;SHT30;52350;51.546;7.002;2022-10-16T13:48:21;24.82;47.70
65652;SHT30;52350;51.546;7.002;2022-10-16T13:50:46;24.02;49.43
65652;SHT30;52350;51.546;7.002;2022-10-16T13:53:25;23.11;50.92
65652;SHT30;52350;51.546;7.002;2022-10-16T13:55:51;22.59;52.31
65652;SHT30;52350;51.546;7.002;2022-10-16T13:58:16;22.20;54.96
65652;SHT30;52350;51.546;7.002;2022-10-16T14:01:01;21.82;54.59
65652;SHT30;52350;51.546;7.002;2022-10-16T14:03:29;21.54;56.58
65652;SHT30;52350;51.546;7.002;2022-10-16T14:06:00;21.44;56.21
65652;SHT30;52350;51.546;7.002;2022-10-16T14:08:29;21.58;57.52
65652;SHT30;52350;51.546;7.002;2022-10-16T14:10:56;21.66;57.17
65652;SHT30;52350;51.546;7.002;2022-10-16T14:13:37;21.81;56.53
65652;SHT30;52350;51.546;7.002;2022-10-16T14:16:06;21.69;55.61
65652;SHT30;52350;51.546;7.002;2022-10-16T14:18:34;21.56;55.95
65652;SHT30;52350;51.546;7.002;2022-10-16T14:21:04;21.38;56.14
65652;SHT30;52350;51.546;7.002;2022-10-16T14:23:35;21.06;57.18
65652;SHT30;52350;51.546;7.002;2022-10-16T14:28:34;20.44;58.27
65652;SHT30;52350;51.546;7.002;2022-10-16T14:33:52;20.10;59.87
65652;SHT30;52350;51.546;7.002;2022-10-16T14:36:18;19.96;60.19
65652;SHT30;52350;51.546;7.002;2022-10-16T14:38:54;19.89;60.11
65652;SHT30;52350;51.546;7.002;2022-10-16T14:41:24;19.83;60.06
65652;SHT30;52350;51.546;7.002;2022-10-16T14:43:50;19.70;61.40
65652;SHT30;52350;51.546;7.002;2022-10-16T14:46:19;19.76;61.46
65652;SHT30;52350;51.546;7.002;2022-10-16T14:48:58;19.82;61.48
65652;SHT30;52350;51.546;7.002;2022-10-16T14:51:27;19.97;58.83
65652;SHT30;52350;51.546;7.002;2022-10-16T14:53:52;19.89;60.49
65652;SHT30;52350;51.546;7.002;2022-10-16T14:56:19;19.85;60.35
65652;SHT30;52350;51.546;7.002;2022-10-16T14:58:47;19.79;61.71
65652;SHT30;52350;51.546;7.002;2022-10-16T15:01:15;19.73;61.73
65652;SHT30;52350;51.546;7.002;2022-10-16T15:03:41;19.61;63.12
65652;SHT30;52350;51.546;7.002;2022-10-16T15:06:10;19.54;63.59
65652;SHT30;52350;51.546;7.002;2022-10-16T15:08:37;19.51;64.69
65652;SHT30;52350;51.546;7.002;2022-10-16T15:11:02;19.41;65.16
65652;SHT30;52350;51.546;7.002;2022-10-16T15:13:28;19.34;63.15
65652;SHT30;52350;51.546;7.002;2022-10-16T15:15:53;19.13;64.03
65652;SHT30;52350;51.546;7.002;2022-10-16T15:18:19;19.02;65.37
65652;SHT30;52350;51.546;7.002;2022-10-16T15:20:47;18.92;67.74
65652;SHT30;52350;51.546;7.002;2022-10-16T15:23:20;18.82;70.75
65652;SHT30;52350;51.546;7.002;2022-10-16T15:25:47;18.62;71.94
65652;SHT30;52350;51.546;7.002;2022-10-16T15:28:15;18.48;72.45
65652;SHT30;52350;51.546;7.002;2022-10-16T15:30:42;18.37;73.54
65652;SHT30;52350;51.546;7.002;2022-10-16T15:33:14;18.25;74.11
65652;SHT30;52350;51.546;7.002;2022-10-16T15:35:48;18.11;74.93
65652;SHT30;52350;51.546;7.002;2022-10-16T15:38:16;18.00;75.48
65652;SHT30;52350;51.546;7.002;2022-10-16T15:40:42;17.91;75.86
65652;SHT30;52350;51.546;7.002;2022-10-16T15:43:08;17.86;76.12
65652;SHT30;52350;51.546;7.002;2022-10-16T15:45:34;17.78;76.40
65652;SHT30;52350;51.546;7.002;2022-10-16T15:47:59;17.72;76.81
65652;SHT30;52350;51.546;7.002;2022-10-16T15:50:25;17.65;77.41
65652;SHT30;52350;51.546;7.002;2022-10-16T15:52:51;17.63;77.77
65652;SHT30;52350;51.546;7.002;2022-10-16T15:55:17;17.54;78.17
65652;SHT30;52350;51.546;7.002;2022-10-16T15:57:43;17.45;78.72
65652;SHT30;52350;51.546;7.002;2022-10-16T16:00:13;17.35;79.09
65652;SHT30;52350;51.546;7.002;2022-10-16T16:02:41;17.31;79.08
65652;SHT30;52350;51.546;7.002;2022-10-16T16:05:07;17.27;78.72
65652;SHT30;52350;51.546;7.002;2022-10-16T16:07:38;17.18;78.98
65652;SHT30;52350;51.546;7.002;2022-10-16T16:10:06;17.10;79.27
65652;SHT30;52350;51.546;7.002;2022-10-16T16:12:33;16.99;79.50
65652;SHT30;52350;51.546;7.002;2022-10-16T16:14:59;16.96;79.78
65652;SHT30;52350;51.546;7.002;2022-10-16T16:17:24;16.86;79.96
65652;SHT30;52350;51.546;7.002;2022-10-16T16:19:50;16.84;80.21
65652;SHT30;52350;51.546;7.002;2022-10-16T16:22:16;16.73;80.42
65652;SHT30;52350;51.546;7.002;2022-10-16T16:24:41;16.65;80.85
65652;SHT30;52350;51.546;7.002;2022-10-16T16:27:07;16.52;81.11
65652;SHT30;52350;51.546;7.002;2022-10-16T16:29:33;16.47;81.43
65652;SHT30;52350;51.546;7.002;2022-10-16T16:31:59;16.44;81.56
65652;SHT30;52350;51.546;7.002;2022-10-16T16:34:25;16.37;81.66
65652;SHT30;52350;51.546;7.002;2022-10-16T16:36:52;16.25;81.94
65652;SHT30;52350;51.546;7.002;2022-10-16T16:39:17;16.14;82.27
65652;SHT30;52350;51.546;7.002;2022-10-16T16:41:43;16.07;82.47
65652;SHT30;52350;51.546;7.002;2022-10-16T16:44:11;16.00;82.67
65652;SHT30;52350;51.546;7.002;2022-10-16T16:46:37;15.90;82.88
65652;SHT30;52350;51.546;7.002;2022-10-16T16:49:04;15.86;83.18
65652;SHT30;52350;51.546;7.002;2022-10-16T16:51:31;15.85;83.24
65652;SHT30;52350;51.546;7.002;2022-10-16T16:53:58;15.78;83.38
65652;SHT30;52350;51.546;7.002;2022-10-16T16:56:24;15.69;83.69
65652;SHT30;52350;51.546;7.002;2022-10-16T16:58:51;15.63;84.01
65652;SHT30;52350;51.546;7.002;2022-10-16T17:01:19;15.55;84.29
65652;SHT30;52350;51.546;7.002;2022-10-16T17:03:45;15.51;84.58
65652;SHT30;52350;51.546;7.002;2022-10-16T17:06:14;15.51;84.90
65652;SHT30;52350;51.546;7.002;2022-10-16T17:08:40;15.51;85.04
65652;SHT30;52350;51.546;7.002;2022-10-16T17:11:06;15.51;84.85
65652;SHT30;52350;51.546;7.002;2022-10-16T17:13:36;15.48;84.82
65652;SHT30;52350;51.546;7.002;2022-10-16T17:16:03;15.45;84.82
65652;SHT30;52350;51.546;7.002;2022-10-16T17:18:29;15.35;85.01
65652;SHT30;52350;51.546;7.002;2022-10-16T17:20:58;15.34;85.20
65652;SHT30;52350;51.546;7.002;2022-10-16T17:23:25;15.31;85.27
65652;SHT30;52350;51.546;7.002;2022-10-16T17:25:50;15.28;85.42
65652;SHT30;52350;51.546;7.002;2022-10-16T17:28:16;15.26;85.53
65652;SHT30;52350;51.546;7.002;2022-10-16T17:30:42;15.24;85.75
65652;SHT30;52350;51.546;7.002;2022-10-16T17:33:08;15.21;85.86
65652;SHT30;52350;51.546;7.002;2022-10-16T17:35:39;15.19;85.89
65652;SHT30;52350;51.546;7.002;2022-10-16T17:38:06;15.21;85.75